BDR - Bridgeport/Sikorsky

Pirep is a free, collaborative database of all public and private airports located within the United States. All pilots are welcome to contribute, edit, and improve any airport they have local knowledge about, no registration required.
Uploaded photos will be licensed under a CC BY-SA 4.0 license. Please only upload photos you have the rights to use.
Tags
Public
Food
Museum
Flying Clubs
METAR / TAF
Edit Tags
Camping
Lodging
Car Rental
Bicycles
Swimming
Golfing
Fishing
Hot Springs
Airpark
Upcoming Events
No upcoming events. Is anything happening here soon?
*
*
*

Where exactly on/near the airport is this event taking place?

Is there a webpage with more information for this event?

Who should be contacted for more information?

What is this event all about?

Repeat every
Description
Last updated: 2023-06-11 13:56:05 EDT
Transient Parking
Fuel Location
Landing & Tie-down Fees
Last updated: 2024-05-03 01:06:04 EDT
Crew Car Availability
Flying Clubs
Last updated: 2023-11-11 03:43:57 EST
WiFi Access
Airport Statistics
Location: Bridgeport, CT
Elevation: 8ft
Sectional: New York
Activation date: Apr 1940
Fuel: 100LL, A (prices)
Runway 11/29: 4,759ft
Runway 06/24: 4,677ft
Access: Open to the public
Current Weather — VFR
  • Weather data is strictly informational and not for flight planning purposes.
  • METAR
    2024-05-30 03:52:00 EDT
    Ceiling Wind Temperature Dewpoint Weather Visbility
    8,000ft Calm 60°F 57°F N/A 10SM
    Clouds: Scattered @ 4,300ft, Broken @ 8,000ft, Overcast @ 10,000ft
    Raw: KBDR 300752Z AUTO 00000KT 10SM SCT043 BKN080 OVC100 16/14 A2987 RMK AO2 RAE47 SLP116 P0004 T01560144 $
  • TAF
    2024-05-30 02:00:00 EDT – 2024-05-30 05:00:00 EDT
    Ceiling Wind Weather Visbility
    4,000ft 330° @ 6kt Light rain showers 6SM
    Clouds: Scattered @ 2,000ft, Overcast @ 4,000ft
    Raw: KBDR 300537Z 3006/3106 33006KT 6SM -SHRA SCT020 OVC040 FM300900 35009KT 6SM -SHRA BR BKN015 OVC035 FM301300 35012G18KT P6SM BKN025 OVC040 FM301600 36012G19KT P6SM BKN060 FM301800 36009KT P6SM BKN070 FM310000 35005KT P6SM BKN080
  • TAF
    2024-05-30 05:00:00 EDT – 2024-05-30 09:00:00 EDT
    Ceiling Wind Weather Visbility
    1,500ft 350° @ 9kt Light rain showers, mist 6SM
    Clouds: Broken @ 1,500ft, Overcast @ 3,500ft
    Raw: KBDR 300537Z 3006/3106 33006KT 6SM -SHRA SCT020 OVC040 FM300900 35009KT 6SM -SHRA BR BKN015 OVC035 FM301300 35012G18KT P6SM BKN025 OVC040 FM301600 36012G19KT P6SM BKN060 FM301800 36009KT P6SM BKN070 FM310000 35005KT P6SM BKN080
  • TAF
    2024-05-30 09:00:00 EDT – 2024-05-30 12:00:00 EDT
    Ceiling Wind Weather Visbility
    2,500ft 350° @ 12kt, gusts 18kt N/A 6SM
    Clouds: Broken @ 2,500ft, Overcast @ 4,000ft
    Raw: KBDR 300537Z 3006/3106 33006KT 6SM -SHRA SCT020 OVC040 FM300900 35009KT 6SM -SHRA BR BKN015 OVC035 FM301300 35012G18KT P6SM BKN025 OVC040 FM301600 36012G19KT P6SM BKN060 FM301800 36009KT P6SM BKN070 FM310000 35005KT P6SM BKN080
  • TAF
    2024-05-30 12:00:00 EDT – 2024-05-30 14:00:00 EDT
    Ceiling Wind Weather Visbility
    6,000ft 360° @ 12kt, gusts 19kt N/A 6SM
    Clouds: Broken @ 6,000ft
    Raw: KBDR 300537Z 3006/3106 33006KT 6SM -SHRA SCT020 OVC040 FM300900 35009KT 6SM -SHRA BR BKN015 OVC035 FM301300 35012G18KT P6SM BKN025 OVC040 FM301600 36012G19KT P6SM BKN060 FM301800 36009KT P6SM BKN070 FM310000 35005KT P6SM BKN080
  • TAF
    2024-05-30 14:00:00 EDT – 2024-05-30 20:00:00 EDT
    Ceiling Wind Weather Visbility
    7,000ft 360° @ 9kt N/A 6SM
    Clouds: Broken @ 7,000ft
    Raw: KBDR 300537Z 3006/3106 33006KT 6SM -SHRA SCT020 OVC040 FM300900 35009KT 6SM -SHRA BR BKN015 OVC035 FM301300 35012G18KT P6SM BKN025 OVC040 FM301600 36012G19KT P6SM BKN060 FM301800 36009KT P6SM BKN070 FM310000 35005KT P6SM BKN080
  • TAF
    2024-05-30 20:00:00 EDT – 2024-05-31 02:00:00 EDT
    Ceiling Wind Weather Visbility
    8,000ft 350° @ 5kt N/A 6SM
    Clouds: Broken @ 8,000ft
    Raw: KBDR 300537Z 3006/3106 33006KT 6SM -SHRA SCT020 OVC040 FM300900 35009KT 6SM -SHRA BR BKN015 OVC035 FM301300 35012G18KT P6SM BKN025 OVC040 FM301600 36012G19KT P6SM BKN060 FM301800 36009KT P6SM BKN070 FM310000 35005KT P6SM BKN080
Click/tap to add an annotation marker to the map
Airport Webcams
No webcams added yet.
Direct links to live image URLs will be displayed inline on this page. URLs to separate webpages will be linked to.
URL:
Direct links to live image URLs will be displayed inline on this page. URLs to separate webpages will be linked to.
URL:
Remarks
  • Existed prior to 1959.
  • Extsv hop blw 10000 ft 5-15 mi nw thru ne, for tfc info when invof arpt ctc sikorsky ops on 133.6/305.8 (0700-1630).
  • When winds are less than 5 kts rqstd use of rwy 11 or 29.
  • Birds & wildlife fqtly on & invof arpt.
  • There may be standing water adj to all sfcs.
Comments
Leave a comment What was your experience like at this airport?